createdAt,value
2023-12-22T00:01:44.412Z,96720.89
2023-12-22T00:04:18.625Z,96746.61
2023-12-22T00:06:53.284Z,96731.19
2023-12-22T00:09:26.661Z,96755.18
2023-12-22T00:12:00.200Z,96748.31
2023-12-22T00:14:33.654Z,96756.88
2023-12-22T00:17:07.913Z,96741.45
2023-12-22T00:19:41.895Z,96744.00
2023-12-22T00:22:15.269Z,96738.01
2023-12-22T00:24:48.978Z,96733.72
2023-12-22T00:27:22.516Z,96728.55
2023-12-22T00:29:56.345Z,96739.70
2023-12-22T00:32:29.678Z,96723.41
2023-12-22T00:35:03.543Z,96725.13
2023-12-22T00:37:37.433Z,96726.85
2023-12-22T00:42:54.591Z,96723.45
2023-12-22T00:45:27.858Z,96722.55
2023-12-22T00:48:03.827Z,96708.86
2023-12-22T00:50:37.723Z,96725.09
2023-12-22T00:53:11.212Z,96724.25
2023-12-22T00:55:44.616Z,96713.94
2023-12-22T00:58:18.499Z,96712.22
2023-12-22T01:00:52.387Z,96704.54
2023-12-22T01:03:26.137Z,96700.25
2023-12-22T01:05:59.787Z,96711.38
2023-12-22T01:08:33.512Z,96701.97
2023-12-22T01:11:07.508Z,96705.39
2023-12-22T01:13:41.071Z,96706.27
2023-12-22T01:16:16.301Z,96703.66
2023-12-22T01:18:50.055Z,96700.25
2023-12-22T01:21:24.192Z,96704.54
2023-12-22T01:23:57.997Z,96695.13
2023-12-22T01:26:31.402Z,96696.83
2023-12-22T01:29:05.004Z,96701.99
2023-12-22T01:31:38.948Z,96692.59
2023-12-22T01:34:12.875Z,96697.73
2023-12-22T01:36:46.533Z,96710.58
2023-12-22T01:39:20.849Z,96697.70
2023-12-22T01:41:54.524Z,96693.41
2023-12-22T01:44:27.977Z,96689.09
2023-12-22T01:47:02.320Z,96684.80
2023-12-22T01:49:35.944Z,96689.94
2023-12-22T01:52:10.289Z,96689.97
2023-12-22T01:54:44.036Z,96684.83
2023-12-22T01:57:19.248Z,96671.13
2023-12-22T01:59:53.901Z,96675.41
2023-12-22T02:02:27.545Z,96673.71
2023-12-22T02:16:41.167Z,96670.34
2023-12-22T02:19:20.491Z,96670.33
2023-12-22T02:22:10.331Z,96670.31
2023-12-22T02:24:45.352Z,96662.58
2023-12-22T02:27:25.386Z,96664.28
2023-12-22T02:30:02.487Z,96661.72
2023-12-22T02:32:40.054Z,96670.27
2023-12-22T02:35:16.127Z,96665.16
2023-12-22T02:37:51.372Z,96666.03
2023-12-22T02:40:26.120Z,96666.02
2023-12-22T02:42:59.545Z,96651.45
2023-12-22T02:45:33.540Z,96660.91
2023-12-22T02:48:08.935Z,96654.89
2023-12-22T02:50:42.778Z,96656.63
2023-12-22T02:53:16.352Z,96657.47
2023-12-22T02:55:50.218Z,96654.92
2023-12-22T02:58:23.958Z,96641.20
2023-12-22T03:00:57.229Z,96630.89
2023-12-22T03:03:31.156Z,96636.89
2023-12-22T03:06:05.012Z,96630.90
2023-12-22T03:08:38.719Z,96626.63
2023-12-22T03:11:12.373Z,96624.05
2023-12-22T03:13:46.036Z,96615.48
2023-12-22T03:16:20.016Z,96618.89
2023-12-22T03:18:53.674Z,96609.48
2023-12-22T03:21:28.207Z,96612.05
2023-12-22T03:24:01.801Z,96610.32
2023-12-22T03:26:35.326Z,96628.32
2023-12-22T03:29:08.933Z,96618.05
2023-12-22T03:34:25.015Z,96634.34
2023-12-22T03:36:58.618Z,96636.04
2023-12-22T03:39:32.223Z,96636.05
2023-12-22T03:42:06.623Z,96625.77
2023-12-22T03:44:40.064Z,96630.03
2023-12-22T03:47:13.548Z,96618.05
2023-12-22T03:49:47.226Z,96628.34
2023-12-22T03:52:21.409Z,96624.03
2023-12-22T03:54:55.189Z,96610.34
2023-12-22T03:57:29.435Z,96620.60
2023-12-22T04:00:02.892Z,96605.19
2023-12-22T04:02:36.770Z,96606.03
2023-12-22T04:05:12.923Z,96599.19
2023-12-22T04:07:46.796Z,96608.59
2023-12-22T04:10:21.787Z,96598.33
2023-12-22T04:12:55.393Z,96599.18
2023-12-22T04:15:29.060Z,96594.87
2023-12-22T04:18:02.930Z,96597.45
2023-12-22T04:20:37.085Z,96585.46
2023-12-22T04:23:10.555Z,96592.33
2023-12-22T04:25:44.313Z,96588.88
2023-12-22T04:28:18.091Z,96591.47
2023-12-22T04:30:52.074Z,96575.16
2023-12-22T04:33:25.795Z,96580.33
2023-12-22T04:35:59.598Z,96586.32
2023-12-22T04:38:32.990Z,96572.61
2023-12-22T04:41:06.483Z,96570.05
2023-12-22T04:43:40.062Z,96568.31
2023-12-22T04:46:13.762Z,96553.75
2023-12-22T04:48:47.192Z,96568.33
2023-12-22T04:51:21.119Z,96574.31
2023-12-22T04:53:54.972Z,96569.17
2023-12-22T04:56:31.285Z,96558.04
2023-12-22T04:59:04.916Z,96552.90
2023-12-22T05:01:39.327Z,96555.47
2023-12-22T05:04:13.067Z,96561.46
2023-12-22T05:06:47.124Z,96534.03
2023-12-22T05:09:20.674Z,96551.16
2023-12-22T05:11:54.331Z,96544.33
2023-12-22T05:14:28.170Z,96546.05
2023-12-22T05:17:02.687Z,96545.18
2023-12-22T05:19:36.320Z,96550.34
2023-12-22T05:22:09.927Z,96540.89
2023-12-22T05:24:43.598Z,96534.03
2023-12-22T05:27:17.326Z,96535.77
2023-12-22T05:29:51.106Z,96543.45
2023-12-22T05:32:24.882Z,96552.88
2023-12-22T05:35:00.145Z,96560.61
2023-12-22T05:37:35.629Z,96553.75
2023-12-22T05:40:13.310Z,96562.30
2023-12-22T05:42:45.379Z,96555.44
2023-12-22T05:45:19.689Z,96548.61
2023-12-22T05:47:53.558Z,96570.86
2023-12-22T05:50:27.572Z,96563.16
2023-12-22T05:53:02.252Z,96554.59
2023-12-22T05:55:35.882Z,96555.45
2023-12-22T05:58:09.696Z,96551.18
2023-12-22T06:00:43.966Z,96541.77
2023-12-22T06:03:17.600Z,96547.75
2023-12-22T06:05:51.451Z,96548.61
2023-12-22T06:08:25.054Z,96540.89
2023-12-22T06:10:58.648Z,96548.61
2023-12-22T06:13:32.301Z,96555.44
2023-12-22T06:16:06.451Z,96548.59
2023-12-22T06:18:39.974Z,96557.16
2023-12-22T06:21:13.809Z,96561.45
2023-12-22T06:23:47.415Z,96558.87
2023-12-22T06:26:21.265Z,96570.00
2023-12-22T06:28:54.790Z,96543.47
2023-12-22T06:31:28.609Z,96551.16
2023-12-22T06:34:04.129Z,96557.14
2023-12-22T06:36:38.063Z,96554.59
2023-12-22T06:39:11.460Z,96556.31
2023-12-22T06:41:45.156Z,96560.60
2023-12-22T06:44:18.748Z,96558.88
2023-12-22T06:46:52.557Z,96594.00
2023-12-22T06:49:28.154Z,96567.45
2023-12-22T06:52:02.739Z,96572.59
2023-12-22T06:54:36.764Z,96563.16
2023-12-22T06:57:12.292Z,96568.30
2023-12-22T06:59:46.940Z,96582.03
2023-12-22T07:02:23.556Z,96566.59
2023-12-22T07:05:09.122Z,96578.60
2023-12-22T07:07:42.945Z,96559.77
2023-12-22T07:10:16.332Z,96564.02
2023-12-22T07:12:50.255Z,96573.46
2023-12-22T07:15:25.008Z,96576.88
2023-12-22T07:17:58.902Z,96577.75
2023-12-22T07:20:36.856Z,96573.46
2023-12-22T07:23:12.477Z,96579.46
2023-12-22T07:25:47.090Z,96581.17
2023-12-22T07:28:20.942Z,96577.75
2023-12-22T07:30:56.229Z,96569.17
2023-12-22T07:33:30.011Z,96576.91
2023-12-22T07:36:03.419Z,96587.17
2023-12-22T07:38:40.772Z,96573.47
2023-12-22T07:41:14.167Z,96567.45
2023-12-22T07:43:48.450Z,96583.73
2023-12-22T07:46:24.724Z,96573.48
2023-12-22T07:48:58.761Z,96570.04
2023-12-22T07:51:32.893Z,96559.75
2023-12-22T07:54:07.591Z,96558.88
2023-12-22T07:56:42.400Z,96552.91
2023-12-22T07:59:23.697Z,96552.00
2023-12-22T08:01:51.383Z,96551.15
2023-12-22T08:04:24.921Z,96546.83
2023-12-22T08:06:58.614Z,96542.50
2023-12-22T08:09:32.304Z,96544.15
2023-12-22T08:12:06.565Z,96532.94
2023-12-22T08:14:40.158Z,96527.78
2023-12-22T08:17:14.630Z,96527.80
2023-12-22T08:19:49.567Z,96518.40
2023-12-22T08:22:26.076Z,96526.98
2023-12-22T08:24:58.834Z,96521.75
2023-12-22T08:27:33.550Z,96519.83
2023-12-22T08:30:09.140Z,96512.72
2023-12-22T08:32:43.483Z,96514.38
2023-12-22T08:35:17.866Z,96504.08
2023-12-22T08:37:51.870Z,96504.12
2023-12-22T08:40:28.228Z,96509.31
2023-12-22T08:43:02.497Z,96504.95
2023-12-22T08:45:36.960Z,96512.67
2023-12-22T08:48:13.568Z,96507.58
2023-12-22T08:50:47.248Z,96493.77
2023-12-22T08:53:21.014Z,96478.38
2023-12-22T08:55:54.750Z,96479.37
2023-12-22T08:58:28.516Z,96502.62
2023-12-22T09:01:02.298Z,96493.28
2023-12-22T09:03:39.466Z,96507.87
2023-12-22T09:08:49.175Z,96506.91
2023-12-22T09:11:23.466Z,96503.39
2023-12-22T09:13:57.234Z,96506.66
2023-12-22T09:16:30.906Z,96505.84
2023-12-22T09:19:04.942Z,96512.55
2023-12-22T09:21:38.809Z,96514.17
2023-12-22T09:24:13.541Z,96514.05
2023-12-22T09:26:47.117Z,96509.75
2023-12-22T09:29:22.520Z,96509.77
2023-12-22T09:31:56.199Z,96507.89
2023-12-22T09:34:30.988Z,96500.34
2023-12-22T09:37:04.791Z,96493.52
2023-12-22T09:39:38.882Z,96499.55
2023-12-22T09:42:12.414Z,96483.37
2023-12-22T09:44:49.701Z,96484.31
2023-12-22T09:47:23.791Z,96477.47
2023-12-22T09:49:58.410Z,96479.25
2023-12-22T09:52:34.506Z,96488.63
2023-12-22T09:55:11.214Z,96488.39
2023-12-22T09:57:45.184Z,96482.89
2023-12-22T10:00:20.944Z,96467.92
2023-12-22T10:02:54.611Z,96476.56
2023-12-22T10:05:28.167Z,96476.97
2023-12-22T10:08:04.245Z,96471.12
2023-12-22T10:10:39.761Z,96467.02
2023-12-22T10:13:14.125Z,96478.35
2023-12-22T10:15:48.740Z,96471.50
2023-12-22T10:18:22.529Z,96466.46
2023-12-22T10:20:56.328Z,96465.66
2023-12-22T10:23:30.133Z,96466.64
2023-12-22T10:26:12.600Z,96462.40
2023-12-22T10:28:50.910Z,96460.68
2023-12-22T10:31:25.146Z,96449.56
2023-12-22T10:33:58.837Z,96456.50
2023-12-22T10:36:32.332Z,96441.05
2023-12-22T10:39:06.077Z,96462.59
2023-12-22T10:41:39.613Z,96458.38
2023-12-22T10:44:14.549Z,96422.31
2023-12-22T10:46:49.531Z,96437.78
2023-12-22T10:49:23.587Z,96426.67
2023-12-22T10:51:57.610Z,96439.57
2023-12-22T10:54:32.194Z,96436.99
2023-12-22T10:57:06.855Z,96420.72
2023-12-22T10:59:47.063Z,96431.03
2023-12-22T11:02:21.042Z,96427.65
2023-12-22T11:05:00.127Z,96432.79
2023-12-22T11:07:39.270Z,96419.91
2023-12-22T11:10:15.141Z,96416.52
2023-12-22T11:12:51.259Z,96417.41
2023-12-22T11:15:26.479Z,96417.42
2023-12-22T11:18:02.437Z,96416.58
2023-12-22T11:20:37.471Z,96412.31
2023-12-22T11:23:13.144Z,96413.11
2023-12-22T11:25:48.626Z,96422.56
2023-12-22T11:28:23.936Z,96419.98
2023-12-22T11:30:59.182Z,96419.13
2023-12-22T11:33:37.000Z,96407.97
2023-12-22T11:36:12.239Z,96412.27
2023-12-22T11:38:47.877Z,96402.02
2023-12-22T11:41:24.176Z,96403.74
2023-12-22T11:43:59.126Z,96391.73
2023-12-22T11:46:34.537Z,96398.63
2023-12-22T11:49:08.675Z,96391.77
2023-12-22T11:51:42.990Z,96381.48
2023-12-22T11:55:01.782Z,96393.52
2023-12-22T11:57:39.373Z,96393.53
2023-12-22T12:00:23.610Z,96407.27
2023-12-22T12:02:59.214Z,96395.28
2023-12-22T12:05:33.333Z,96395.31
2023-12-22T12:08:11.197Z,96389.30
2023-12-22T12:10:57.633Z,96391.89
2023-12-22T12:13:33.616Z,96402.15
2023-12-22T12:16:09.198Z,96388.45
2023-12-22T12:18:43.832Z,96390.17
2023-12-22T12:21:19.043Z,96378.17
2023-12-22T12:23:52.643Z,96375.62
2023-12-22T12:26:28.084Z,96385.91
2023-12-22T12:31:46.217Z,96395.31
2023-12-22T12:34:22.355Z,96361.91
2023-12-22T12:36:56.680Z,96390.19
2023-12-22T12:39:35.164Z,96365.36
2023-12-22T12:42:10.471Z,96372.22
2023-12-22T12:44:45.014Z,96378.20
2023-12-22T12:47:19.154Z,96379.92
2023-12-22T12:50:00.899Z,96395.31
2023-12-22T12:52:36.724Z,96362.80
2023-12-22T12:55:11.854Z,96347.39
2023-12-22T12:57:45.612Z,96366.20
2023-12-22T13:00:21.611Z,96370.50
2023-12-22T13:02:57.409Z,96375.64
2023-12-22T13:05:31.296Z,96375.63
2023-12-22T13:08:15.383Z,96359.36
2023-12-22T13:10:48.691Z,96350.81
2023-12-22T13:13:22.415Z,96372.19
2023-12-22T13:15:55.733Z,96361.95
2023-12-22T13:18:30.318Z,96382.48
2023-12-22T13:21:05.021Z,96384.19
2023-12-22T13:23:38.994Z,96365.36
2023-12-22T13:26:22.658Z,96383.34
2023-12-22T13:29:02.096Z,96374.77
2023-12-22T13:31:38.679Z,96367.06
2023-12-22T13:34:16.354Z,96378.20
2023-12-22T13:36:50.381Z,96376.48
2023-12-22T13:39:25.220Z,96359.35
2023-12-22T13:41:58.791Z,96341.39
2023-12-22T13:44:32.674Z,96347.38
2023-12-22T13:47:08.890Z,96329.43
2023-12-22T13:49:43.201Z,96333.69
2023-12-22T13:52:30.039Z,96328.55
2023-12-22T13:55:04.294Z,96330.28
2023-12-22T13:57:38.005Z,96343.97
2023-12-22T14:00:32.320Z,96338.81
2023-12-22T14:03:06.500Z,96354.24
2023-12-22T14:05:40.312Z,96340.53
2023-12-22T14:08:14.072Z,96352.52
2023-12-22T14:10:51.066Z,96333.69
2023-12-22T14:13:24.710Z,96331.12
2023-12-22T14:15:58.644Z,96363.65
2023-12-22T14:18:32.526Z,96349.97
2023-12-22T14:21:07.060Z,96347.38
2023-12-22T14:23:40.967Z,96353.36
2023-12-22T14:26:14.741Z,96312.29
2023-12-22T14:28:50.123Z,96328.53
2023-12-22T14:31:24.113Z,96332.83
2023-12-22T14:33:59.629Z,96343.94
2023-12-22T14:36:33.638Z,96324.22
2023-12-22T14:39:09.550Z,96325.10
2023-12-22T14:41:45.734Z,96331.95
2023-12-22T14:44:21.342Z,96319.11
2023-12-22T14:46:56.634Z,96307.10
2023-12-22T14:49:32.081Z,96313.11
2023-12-22T14:52:08.199Z,96316.54
2023-12-22T14:54:44.190Z,96323.39
2023-12-22T14:57:19.723Z,96299.42
2023-12-22T14:59:54.963Z,96316.56
2023-12-22T15:02:31.005Z,96302.02
2023-12-22T15:05:06.563Z,96299.46
2023-12-22T15:07:41.175Z,96313.16
2023-12-22T15:10:16.703Z,96303.75
2023-12-22T15:12:51.687Z,96296.04
2023-12-22T15:15:26.331Z,96337.11
2023-12-22T15:18:00.840Z,96290.89
2023-12-22T15:20:35.121Z,96292.61
2023-12-22T15:23:09.373Z,96301.16
2023-12-22T15:25:43.412Z,96314.86
2023-12-22T15:28:17.178Z,96312.30
2023-12-22T15:30:51.672Z,96321.72
2023-12-22T15:33:25.492Z,96315.72
2023-12-22T15:35:59.617Z,96300.33
2023-12-22T15:38:33.661Z,96325.13
2023-12-22T15:41:08.131Z,96326.86
2023-12-22T15:43:42.282Z,96306.31
2023-12-22T15:46:16.561Z,96321.73
2023-12-22T15:48:50.531Z,96319.14
2023-12-22T15:51:24.508Z,96316.59
2023-12-22T15:53:58.159Z,96308.03
2023-12-22T15:56:31.903Z,96297.76
2023-12-22T15:59:05.555Z,96302.88
2023-12-22T16:01:45.557Z,96286.64
2023-12-22T16:04:19.474Z,96293.46
2023-12-22T16:06:53.649Z,96288.33
2023-12-22T16:09:27.174Z,96267.79
2023-12-22T16:12:01.162Z,96273.78
2023-12-22T16:14:37.690Z,96262.65
2023-12-22T16:17:12.965Z,96272.06
2023-12-22T16:19:47.618Z,96285.73
2023-12-22T16:22:21.940Z,96276.33
2023-12-22T16:24:57.483Z,96243.75
2023-12-22T16:27:33.794Z,96262.61
2023-12-22T16:30:10.712Z,96270.28
2023-12-22T16:32:44.982Z,96265.14
2023-12-22T16:35:19.216Z,96254.83
2023-12-22T16:37:52.945Z,96253.95
2023-12-22T16:40:26.687Z,96246.22
2023-12-22T16:43:00.741Z,96253.96
2023-12-22T16:45:35.090Z,96247.93
2023-12-22T16:48:10.280Z,96249.63
2023-12-22T16:50:44.135Z,96253.88
2023-12-22T16:53:17.724Z,96251.30
2023-12-22T16:55:51.451Z,96238.42
2023-12-22T16:58:25.196Z,96259.85
2023-12-22T17:01:17.631Z,96256.41
2023-12-22T17:03:36.216Z,96255.51
2023-12-22T17:06:10.207Z,96263.23
2023-12-22T17:08:45.242Z,96246.94
2023-12-22T17:11:19.004Z,96249.54
2023-12-22T17:13:52.752Z,96254.67
2023-12-22T17:16:26.278Z,96253.80
2023-12-22T17:19:00.007Z,96244.37
2023-12-22T17:21:33.947Z,96235.80
2023-12-22T17:24:08.978Z,96227.22
2023-12-22T17:26:43.683Z,96230.64
2023-12-22T17:29:17.152Z,96228.08
2023-12-22T17:31:52.682Z,96218.63
2023-12-22T17:34:27.295Z,96213.48
2023-12-22T17:37:01.128Z,96231.44
2023-12-22T17:39:35.599Z,96221.17
2023-12-22T17:42:10.220Z,96193.77
2023-12-22T17:44:43.899Z,96221.20
2023-12-22T17:47:17.566Z,96216.89
2023-12-22T17:49:51.198Z,96216.89
2023-12-22T17:52:25.781Z,96207.41
2023-12-22T17:54:59.153Z,96211.76
2023-12-22T17:57:32.940Z,96185.14
2023-12-22T18:00:08.351Z,96203.20
2023-12-22T18:02:42.047Z,96196.34
2023-12-22T18:05:16.092Z,96206.62
2023-12-22T18:07:50.246Z,96210.83
2023-12-22T18:10:24.149Z,96201.45
2023-12-22T18:12:57.441Z,96203.98
2023-12-22T18:15:31.410Z,96194.53
2023-12-22T18:18:07.977Z,96194.56
2023-12-22T18:20:43.278Z,96187.67
2023-12-22T18:23:18.050Z,96175.70
2023-12-22T18:25:52.705Z,96184.30
2023-12-22T18:28:26.939Z,96176.56
2023-12-22T18:31:00.523Z,96171.42
2023-12-22T18:33:36.133Z,96159.44
2023-12-22T18:36:11.860Z,96152.53
2023-12-22T18:38:46.560Z,96137.13
2023-12-22T18:41:20.174Z,96161.16
2023-12-22T18:43:54.698Z,96107.13
2023-12-22T18:46:30.438Z,96136.24
2023-12-22T18:49:04.724Z,96142.27
2023-12-22T18:51:38.328Z,96137.05
2023-12-22T18:54:11.968Z,96138.83
2023-12-22T18:56:47.253Z,96107.93
2023-12-22T18:59:21.074Z,96124.19
2023-12-22T19:02:08.354Z,96103.61
2023-12-22T19:04:30.550Z,96124.20
2023-12-22T19:07:04.448Z,96127.59
2023-12-22T19:09:50.899Z,96123.34
2023-12-22T19:12:24.621Z,96115.66
2023-12-22T19:14:58.272Z,96103.63
2023-12-22T19:17:32.957Z,96108.75
2023-12-22T19:20:08.294Z,96112.20
2023-12-22T19:22:42.153Z,96081.33
2023-12-22T19:25:15.918Z,96106.20
2023-12-22T19:27:51.300Z,96107.88
2023-12-22T19:30:24.890Z,96095.88
2023-12-22T19:32:58.741Z,96071.05
2023-12-22T19:35:32.492Z,96091.62
2023-12-22T19:38:07.461Z,96095.09
2023-12-22T19:40:42.376Z,96083.91
2023-12-22T19:43:16.108Z,96081.38
2023-12-22T19:45:50.002Z,96091.72
2023-12-22T19:48:23.894Z,96084.84
2023-12-22T19:50:57.993Z,96087.38
2023-12-22T19:53:31.569Z,96090.83
2023-12-22T19:56:05.600Z,96108.84
2023-12-22T19:58:39.184Z,96098.60
2023-12-22T20:01:12.698Z,96095.97
2023-12-22T20:03:46.692Z,96082.23
2023-12-22T20:06:20.202Z,96069.38
2023-12-22T20:08:54.138Z,96069.38
2023-12-22T20:11:28.393Z,96053.14
2023-12-22T20:14:02.326Z,96076.30
2023-12-22T20:16:36.881Z,96080.56
2023-12-22T20:19:10.883Z,96069.40
2023-12-22T20:21:44.916Z,96068.58
2023-12-22T20:24:18.452Z,96069.42
2023-12-22T20:26:52.056Z,96071.11
2023-12-22T20:29:26.032Z,96071.99
2023-12-22T20:32:00.310Z,96074.52
2023-12-22T20:34:34.078Z,96069.33
2023-12-22T20:37:07.938Z,96065.09
2023-12-22T20:39:43.979Z,96065.05
2023-12-22T20:42:17.728Z,96053.06
2023-12-22T20:44:52.049Z,96046.20
2023-12-22T20:47:25.578Z,96055.61
2023-12-22T20:49:59.034Z,96060.75
2023-12-22T20:52:35.600Z,96059.00
2023-12-22T20:55:10.855Z,96045.28
2023-12-22T20:57:46.234Z,96038.42
2023-12-22T21:00:20.556Z,96045.28
2023-12-22T21:02:54.502Z,96045.27
2023-12-22T21:05:28.621Z,96038.37
2023-12-22T21:08:02.586Z,96050.39
2023-12-22T21:10:38.014Z,96041.77
2023-12-22T21:13:11.975Z,96027.17
2023-12-22T21:15:46.122Z,96036.65
2023-12-22T21:18:19.932Z,96036.63
2023-12-22T21:20:53.885Z,96042.66
2023-12-22T21:23:28.032Z,96031.44
2023-12-22T21:26:01.691Z,96023.77
2023-12-22T21:28:35.496Z,96020.37
2023-12-22T21:31:10.933Z,96026.38
2023-12-22T21:33:44.923Z,96010.06
2023-12-22T21:36:25.199Z,96010.95
2023-12-22T21:38:59.009Z,96023.81
2023-12-22T21:41:33.388Z,95998.06
2023-12-22T21:44:06.990Z,96012.65
2023-12-22T21:46:46.643Z,96010.06
2023-12-22T21:49:20.651Z,95993.72
2023-12-22T21:51:54.139Z,95995.44
2023-12-22T21:54:28.133Z,96016.02
2023-12-22T21:57:01.920Z,96006.52
2023-12-22T21:59:35.627Z,96014.20
2023-12-22T22:02:09.185Z,96009.94
2023-12-22T22:04:43.939Z,95998.77
2023-12-22T22:07:18.829Z,96004.81
2023-12-22T22:09:52.357Z,96000.58
2023-12-22T22:12:25.957Z,96007.41
2023-12-22T22:14:59.476Z,96003.14
2023-12-22T22:17:35.530Z,95983.41
2023-12-22T22:20:12.256Z,95993.72
2023-12-22T22:22:45.882Z,95990.30
2023-12-22T22:25:19.736Z,95992.92
2023-12-22T22:27:53.778Z,95997.22
2023-12-22T22:30:27.778Z,95966.40
2023-12-22T22:33:03.113Z,95981.77
2023-12-22T22:35:37.140Z,95982.63
2023-12-22T22:38:11.785Z,95990.30
2023-12-22T22:40:45.570Z,95956.05
2023-12-22T22:43:19.502Z,95964.62
2023-12-22T22:45:53.336Z,95969.80
2023-12-22T22:48:27.448Z,95987.79
2023-12-22T22:51:01.668Z,95981.81
2023-12-22T22:53:35.159Z,95978.41
2023-12-22T22:56:09.839Z,95975.84
2023-12-22T22:58:45.650Z,95968.13
2023-12-22T23:01:19.847Z,95980.12
2023-12-22T23:04:00.493Z,95980.09
2023-12-22T23:06:29.600Z,95978.34
2023-12-22T23:09:03.954Z,95978.38
2023-12-22T23:11:37.631Z,95972.36
2023-12-22T23:14:11.411Z,95971.55
2023-12-22T23:16:45.023Z,95983.49
2023-12-22T23:19:18.796Z,95969.78
2023-12-22T23:21:52.551Z,95964.62
2023-12-22T23:24:26.292Z,95968.91
2023-12-22T23:26:59.888Z,95956.00
2023-12-22T23:29:33.439Z,95943.97
2023-12-22T23:32:08.961Z,95960.28
2023-12-22T23:34:42.663Z,95945.76
2023-12-22T23:37:16.252Z,95947.44
2023-12-22T23:39:50.846Z,95957.70
2023-12-22T23:42:24.458Z,95950.02
2023-12-22T23:44:57.979Z,95960.23
2023-12-22T23:47:33.169Z,95950.80
2023-12-22T23:50:08.699Z,95930.25
2023-12-22T23:52:42.261Z,95935.39
2023-12-22T23:55:16.588Z,95943.98
2023-12-22T23:57:50.659Z,95946.57
